sensor_id;sensor_type;location;lat;lon;timestamp;P1;durP1;ratioP1;P2;durP2;ratioP2
4939;SDS011;2485;49.326;7.214;2023-05-02T00:01:21;6.90;;;5.97;;
4939;SDS011;2485;49.326;7.214;2023-05-02T00:03:47;8.20;;;6.40;;
4939;SDS011;2485;49.326;7.214;2023-05-02T00:06:15;8.67;;;6.70;;
4939;SDS011;2485;49.326;7.214;2023-05-02T00:08:42;10.43;;;6.40;;
4939;SDS011;2485;49.326;7.214;2023-05-02T00:11:08;12.33;;;6.57;;
4939;SDS011;2485;49.326;7.214;2023-05-02T00:13:34;8.43;;;6.53;;
4939;SDS011;2485;49.326;7.214;2023-05-02T00:16:01;9.60;;;6.20;;
4939;SDS011;2485;49.326;7.214;2023-05-02T00:18:27;7.33;;;6.33;;
4939;SDS011;2485;49.326;7.214;2023-05-02T00:20:54;5.70;;;5.10;;
4939;SDS011;2485;49.326;7.214;2023-05-02T00:23:22;10.77;;;6.73;;
4939;SDS011;2485;49.326;7.214;2023-05-02T00:25:48;7.60;;;6.13;;
4939;SDS011;2485;49.326;7.214;2023-05-02T00:28:15;9.83;;;6.53;;
4939;SDS011;2485;49.326;7.214;2023-05-02T00:30:42;11.20;;;6.70;;
4939;SDS011;2485;49.326;7.214;2023-05-02T00:33:08;7.80;;;6.30;;
4939;SDS011;2485;49.326;7.214;2023-05-02T00:35:36;15.37;;;6.87;;
4939;SDS011;2485;49.326;7.214;2023-05-02T00:38:02;7.37;;;6.17;;
4939;SDS011;2485;49.326;7.214;2023-05-02T00:40:30;10.37;;;6.70;;
4939;SDS011;2485;49.326;7.214;2023-05-02T00:42:56;11.77;;;7.20;;
4939;SDS011;2485;49.326;7.214;2023-05-02T00:45:23;8.87;;;6.40;;
4939;SDS011;2485;49.326;7.214;2023-05-02T00:47:49;9.87;;;6.90;;
4939;SDS011;2485;49.326;7.214;2023-05-02T00:50:15;10.00;;;7.30;;
4939;SDS011;2485;49.326;7.214;2023-05-02T00:52:42;11.10;;;7.50;;
4939;SDS011;2485;49.326;7.214;2023-05-02T00:55:09;10.20;;;7.20;;
4939;SDS011;2485;49.326;7.214;2023-05-02T00:57:36;11.60;;;7.10;;
4939;SDS011;2485;49.326;7.214;2023-05-02T01:00:03;8.47;;;6.97;;
4939;SDS011;2485;49.326;7.214;2023-05-02T01:02:31;10.33;;;7.90;;
4939;SDS011;2485;49.326;7.214;2023-05-02T01:04:59;10.30;;;7.43;;
4939;SDS011;2485;49.326;7.214;2023-05-02T01:07:34;11.53;;;8.00;;
4939;SDS011;2485;49.326;7.214;2023-05-02T01:10:05;16.80;;;8.03;;
4939;SDS011;2485;49.326;7.214;2023-05-02T01:12:36;12.60;;;8.30;;
4939;SDS011;2485;49.326;7.214;2023-05-02T01:15:07;8.90;;;7.17;;
4939;SDS011;2485;49.326;7.214;2023-05-02T01:17:35;9.73;;;7.17;;
4939;SDS011;2485;49.326;7.214;2023-05-02T01:20:02;13.60;;;9.03;;
4939;SDS011;2485;49.326;7.214;2023-05-02T01:22:30;12.00;;;8.10;;
4939;SDS011;2485;49.326;7.214;2023-05-02T01:24:59;11.97;;;8.03;;
4939;SDS011;2485;49.326;7.214;2023-05-02T01:27:27;10.57;;;8.40;;
4939;SDS011;2485;49.326;7.214;2023-05-02T01:29:57;11.50;;;8.37;;
4939;SDS011;2485;49.326;7.214;2023-05-02T01:32:25;15.10;;;8.27;;
4939;SDS011;2485;49.326;7.214;2023-05-02T01:34:52;13.30;;;8.00;;
4939;SDS011;2485;49.326;7.214;2023-05-02T01:37:19;11.60;;;8.47;;
4939;SDS011;2485;49.326;7.214;2023-05-02T01:39:46;11.57;;;7.97;;
4939;SDS011;2485;49.326;7.214;2023-05-02T01:42:14;10.23;;;8.10;;
4939;SDS011;2485;49.326;7.214;2023-05-02T01:44:43;9.90;;;7.80;;
4939;SDS011;2485;49.326;7.214;2023-05-02T01:47:11;12.30;;;8.70;;
4939;SDS011;2485;49.326;7.214;2023-05-02T01:49:38;9.37;;;7.63;;
4939;SDS011;2485;49.326;7.214;2023-05-02T01:52:06;9.63;;;7.20;;
4939;SDS011;2485;49.326;7.214;2023-05-02T01:54:35;12.00;;;8.00;;
4939;SDS011;2485;49.326;7.214;2023-05-02T01:57:03;8.23;;;6.87;;
4939;SDS011;2485;49.326;7.214;2023-05-02T01:59:30;10.50;;;7.40;;
4939;SDS011;2485;49.326;7.214;2023-05-02T02:01:58;9.60;;;7.10;;
4939;SDS011;2485;49.326;7.214;2023-05-02T02:04:28;10.60;;;8.20;;
4939;SDS011;2485;49.326;7.214;2023-05-02T02:06:57;9.63;;;7.20;;
4939;SDS011;2485;49.326;7.214;2023-05-02T02:09:23;10.80;;;7.60;;
4939;SDS011;2485;49.326;7.214;2023-05-02T02:11:51;11.17;;;8.60;;
4939;SDS011;2485;49.326;7.214;2023-05-02T02:14:20;10.60;;;8.47;;
4939;SDS011;2485;49.326;7.214;2023-05-02T02:16:46;13.53;;;9.30;;
4939;SDS011;2485;49.326;7.214;2023-05-02T02:19:13;10.70;;;8.60;;
4939;SDS011;2485;49.326;7.214;2023-05-02T02:21:42;12.50;;;8.67;;
4939;SDS011;2485;49.326;7.214;2023-05-02T02:24:08;11.60;;;9.07;;
4939;SDS011;2485;49.326;7.214;2023-05-02T02:26:35;11.30;;;8.10;;
4939;SDS011;2485;49.326;7.214;2023-05-02T02:29:02;15.43;;;10.73;;
4939;SDS011;2485;49.326;7.214;2023-05-02T02:31:29;18.23;;;9.83;;
4939;SDS011;2485;49.326;7.214;2023-05-02T02:33:56;11.20;;;9.00;;
4939;SDS011;2485;49.326;7.214;2023-05-02T02:36:23;13.47;;;9.77;;
4939;SDS011;2485;49.326;7.214;2023-05-02T02:38:53;12.97;;;10.00;;
4939;SDS011;2485;49.326;7.214;2023-05-02T02:41:26;16.50;;;9.90;;
4939;SDS011;2485;49.326;7.214;2023-05-02T02:43:57;18.47;;;9.97;;
4939;SDS011;2485;49.326;7.214;2023-05-02T02:46:27;16.00;;;10.50;;
4939;SDS011;2485;49.326;7.214;2023-05-02T02:48:55;16.00;;;10.73;;
4939;SDS011;2485;49.326;7.214;2023-05-02T02:51:24;14.17;;;10.73;;
4939;SDS011;2485;49.326;7.214;2023-05-02T02:53:56;16.97;;;11.40;;
4939;SDS011;2485;49.326;7.214;2023-05-02T02:56:26;17.20;;;11.73;;
4939;SDS011;2485;49.326;7.214;2023-05-02T02:58:54;18.50;;;13.33;;
4939;SDS011;2485;49.326;7.214;2023-05-02T03:01:23;21.13;;;11.70;;
4939;SDS011;2485;49.326;7.214;2023-05-02T03:03:49;18.00;;;13.43;;
4939;SDS011;2485;49.326;7.214;2023-05-02T03:06:16;19.13;;;13.17;;
4939;SDS011;2485;49.326;7.214;2023-05-02T03:08:43;17.03;;;12.33;;
4939;SDS011;2485;49.326;7.214;2023-05-02T03:11:11;16.60;;;11.73;;
4939;SDS011;2485;49.326;7.214;2023-05-02T03:13:37;19.07;;;11.90;;
4939;SDS011;2485;49.326;7.214;2023-05-02T03:16:15;19.33;;;12.07;;
4939;SDS011;2485;49.326;7.214;2023-05-02T03:18:46;17.63;;;12.33;;
4939;SDS011;2485;49.326;7.214;2023-05-02T03:21:12;19.30;;;12.63;;
4939;SDS011;2485;49.326;7.214;2023-05-02T03:23:39;19.47;;;13.00;;
4939;SDS011;2485;49.326;7.214;2023-05-02T03:26:05;21.70;;;14.10;;
4939;SDS011;2485;49.326;7.214;2023-05-02T03:28:33;20.97;;;14.07;;
4939;SDS011;2485;49.326;7.214;2023-05-02T03:31:00;22.93;;;13.27;;
4939;SDS011;2485;49.326;7.214;2023-05-02T03:33:26;26.60;;;14.97;;
4939;SDS011;2485;49.326;7.214;2023-05-02T03:35:53;20.53;;;13.30;;
4939;SDS011;2485;49.326;7.214;2023-05-02T03:38:19;21.17;;;13.83;;
4939;SDS011;2485;49.326;7.214;2023-05-02T03:40:45;22.17;;;14.00;;
4939;SDS011;2485;49.326;7.214;2023-05-02T03:43:12;21.33;;;14.90;;
4939;SDS011;2485;49.326;7.214;2023-05-02T03:45:39;23.63;;;14.63;;
4939;SDS011;2485;49.326;7.214;2023-05-02T03:48:06;22.13;;;14.67;;
4939;SDS011;2485;49.326;7.214;2023-05-02T03:50:32;22.23;;;15.17;;
4939;SDS011;2485;49.326;7.214;2023-05-02T03:52:59;22.67;;;15.00;;
4939;SDS011;2485;49.326;7.214;2023-05-02T03:55:25;22.90;;;15.40;;
4939;SDS011;2485;49.326;7.214;2023-05-02T03:57:52;23.77;;;15.60;;
4939;SDS011;2485;49.326;7.214;2023-05-02T04:00:18;29.83;;;17.20;;
4939;SDS011;2485;49.326;7.214;2023-05-02T04:02:46;25.60;;;16.07;;
4939;SDS011;2485;49.326;7.214;2023-05-02T04:05:13;29.37;;;17.67;;
4939;SDS011;2485;49.326;7.214;2023-05-02T04:07:39;29.70;;;17.33;;
4939;SDS011;2485;49.326;7.214;2023-05-02T04:10:06;28.50;;;16.73;;
4939;SDS011;2485;49.326;7.214;2023-05-02T04:12:40;25.83;;;17.07;;
4939;SDS011;2485;49.326;7.214;2023-05-02T04:15:07;28.53;;;16.73;;
4939;SDS011;2485;49.326;7.214;2023-05-02T04:17:33;31.13;;;17.47;;
4939;SDS011;2485;49.326;7.214;2023-05-02T04:20:01;34.90;;;18.70;;
4939;SDS011;2485;49.326;7.214;2023-05-02T04:22:28;29.87;;;17.50;;
4939;SDS011;2485;49.326;7.214;2023-05-02T04:24:55;31.17;;;17.87;;
4939;SDS011;2485;49.326;7.214;2023-05-02T04:27:21;30.63;;;18.80;;
4939;SDS011;2485;49.326;7.214;2023-05-02T04:29:48;33.07;;;19.73;;
4939;SDS011;2485;49.326;7.214;2023-05-02T04:32:14;42.33;;;21.77;;
4939;SDS011;2485;49.326;7.214;2023-05-02T04:34:41;37.83;;;22.03;;
4939;SDS011;2485;49.326;7.214;2023-05-02T04:37:09;37.20;;;22.17;;
4939;SDS011;2485;49.326;7.214;2023-05-02T04:39:35;39.07;;;23.40;;
4939;SDS011;2485;49.326;7.214;2023-05-02T04:42:02;39.10;;;23.07;;
4939;SDS011;2485;49.326;7.214;2023-05-02T04:44:28;41.20;;;22.53;;
4939;SDS011;2485;49.326;7.214;2023-05-02T04:46:55;40.93;;;23.90;;
4939;SDS011;2485;49.326;7.214;2023-05-02T04:49:21;40.53;;;22.83;;
4939;SDS011;2485;49.326;7.214;2023-05-02T04:51:48;42.10;;;23.80;;
4939;SDS011;2485;49.326;7.214;2023-05-02T04:54:17;40.63;;;23.27;;
4939;SDS011;2485;49.326;7.214;2023-05-02T04:56:43;36.83;;;23.03;;
4939;SDS011;2485;49.326;7.214;2023-05-02T04:59:10;34.43;;;21.00;;
4939;SDS011;2485;49.326;7.214;2023-05-02T05:01:37;31.20;;;19.00;;
4939;SDS011;2485;49.326;7.214;2023-05-02T05:04:03;24.93;;;17.23;;
4939;SDS011;2485;49.326;7.214;2023-05-02T05:06:30;30.50;;;17.40;;
4939;SDS011;2485;49.326;7.214;2023-05-02T05:08:57;33.00;;;16.63;;
4939;SDS011;2485;49.326;7.214;2023-05-02T05:11:25;23.83;;;16.43;;
4939;SDS011;2485;49.326;7.214;2023-05-02T05:13:52;25.03;;;16.60;;
4939;SDS011;2485;49.326;7.214;2023-05-02T05:16:18;31.30;;;17.50;;
4939;SDS011;2485;49.326;7.214;2023-05-02T05:18:46;29.07;;;18.00;;
4939;SDS011;2485;49.326;7.214;2023-05-02T05:21:14;27.20;;;18.47;;
4939;SDS011;2485;49.326;7.214;2023-05-02T05:23:40;28.93;;;18.83;;
4939;SDS011;2485;49.326;7.214;2023-05-02T05:26:10;29.40;;;19.10;;
4939;SDS011;2485;49.326;7.214;2023-05-02T05:28:38;25.03;;;18.10;;
4939;SDS011;2485;49.326;7.214;2023-05-02T05:31:04;25.90;;;18.27;;
4939;SDS011;2485;49.326;7.214;2023-05-02T05:33:32;25.17;;;17.97;;
4939;SDS011;2485;49.326;7.214;2023-05-02T05:36:02;28.70;;;19.90;;
4939;SDS011;2485;49.326;7.214;2023-05-02T05:38:28;25.67;;;17.33;;
4939;SDS011;2485;49.326;7.214;2023-05-02T05:40:55;28.40;;;18.73;;
4939;SDS011;2485;49.326;7.214;2023-05-02T05:43:21;29.90;;;19.10;;
4939;SDS011;2485;49.326;7.214;2023-05-02T05:45:51;29.50;;;20.43;;
4939;SDS011;2485;49.326;7.214;2023-05-02T05:48:18;29.03;;;20.07;;
4939;SDS011;2485;49.326;7.214;2023-05-02T05:50:44;31.30;;;20.47;;
4939;SDS011;2485;49.326;7.214;2023-05-02T05:53:11;35.83;;;19.70;;
4939;SDS011;2485;49.326;7.214;2023-05-02T05:55:37;29.93;;;20.43;;
4939;SDS011;2485;49.326;7.214;2023-05-02T05:58:04;30.03;;;21.23;;
4939;SDS011;2485;49.326;7.214;2023-05-02T06:00:30;35.30;;;22.63;;
4939;SDS011;2485;49.326;7.214;2023-05-02T06:02:58;32.93;;;20.57;;
4939;SDS011;2485;49.326;7.214;2023-05-02T06:05:24;32.70;;;20.90;;
4939;SDS011;2485;49.326;7.214;2023-05-02T06:07:51;34.50;;;21.93;;
4939;SDS011;2485;49.326;7.214;2023-05-02T06:10:17;33.10;;;21.40;;
4939;SDS011;2485;49.326;7.214;2023-05-02T06:12:44;35.07;;;20.30;;
4939;SDS011;2485;49.326;7.214;2023-05-02T06:15:10;35.53;;;22.70;;
4939;SDS011;2485;49.326;7.214;2023-05-02T06:17:37;36.37;;;21.63;;
4939;SDS011;2485;49.326;7.214;2023-05-02T06:20:06;32.67;;;20.97;;
4939;SDS011;2485;49.326;7.214;2023-05-02T06:22:33;35.00;;;20.63;;
4939;SDS011;2485;49.326;7.214;2023-05-02T06:25:00;34.60;;;22.90;;
4939;SDS011;2485;49.326;7.214;2023-05-02T06:27:26;34.00;;;23.50;;
4939;SDS011;2485;49.326;7.214;2023-05-02T06:29:54;32.43;;;21.50;;
4939;SDS011;2485;49.326;7.214;2023-05-02T06:32:20;36.47;;;21.67;;
4939;SDS011;2485;49.326;7.214;2023-05-02T06:34:46;34.47;;;21.87;;
4939;SDS011;2485;49.326;7.214;2023-05-02T06:37:14;37.83;;;22.90;;
4939;SDS011;2485;49.326;7.214;2023-05-02T06:39:41;39.43;;;23.00;;
4939;SDS011;2485;49.326;7.214;2023-05-02T06:42:07;37.37;;;22.30;;
4939;SDS011;2485;49.326;7.214;2023-05-02T06:44:33;34.47;;;22.47;;
4939;SDS011;2485;49.326;7.214;2023-05-02T06:47:00;36.37;;;23.20;;
4939;SDS011;2485;49.326;7.214;2023-05-02T06:49:26;36.10;;;21.57;;
4939;SDS011;2485;49.326;7.214;2023-05-02T06:51:53;34.97;;;20.90;;
4939;SDS011;2485;49.326;7.214;2023-05-02T06:54:21;36.30;;;22.00;;
4939;SDS011;2485;49.326;7.214;2023-05-02T06:56:47;36.97;;;21.27;;
4939;SDS011;2485;49.326;7.214;2023-05-02T06:59:14;36.70;;;22.20;;
4939;SDS011;2485;49.326;7.214;2023-05-02T07:01:41;36.10;;;22.57;;
4939;SDS011;2485;49.326;7.214;2023-05-02T07:04:07;35.30;;;22.00;;
4939;SDS011;2485;49.326;7.214;2023-05-02T07:06:34;37.13;;;22.23;;
4939;SDS011;2485;49.326;7.214;2023-05-02T07:09:00;36.80;;;21.93;;
4939;SDS011;2485;49.326;7.214;2023-05-02T07:11:28;32.93;;;22.07;;
4939;SDS011;2485;49.326;7.214;2023-05-02T07:13:55;36.97;;;21.93;;
4939;SDS011;2485;49.326;7.214;2023-05-02T07:16:21;33.50;;;22.23;;
4939;SDS011;2485;49.326;7.214;2023-05-02T07:18:48;34.00;;;19.43;;
4939;SDS011;2485;49.326;7.214;2023-05-02T07:21:14;33.60;;;20.63;;
4939;SDS011;2485;49.326;7.214;2023-05-02T07:23:43;34.17;;;22.00;;
4939;SDS011;2485;49.326;7.214;2023-05-02T07:26:09;41.93;;;24.03;;
4939;SDS011;2485;49.326;7.214;2023-05-02T07:28:37;34.27;;;22.27;;
4939;SDS011;2485;49.326;7.214;2023-05-02T07:31:04;35.83;;;21.87;;
4939;SDS011;2485;49.326;7.214;2023-05-02T07:33:30;36.83;;;22.47;;
4939;SDS011;2485;49.326;7.214;2023-05-02T07:35:57;33.83;;;21.50;;
4939;SDS011;2485;49.326;7.214;2023-05-02T07:38:23;31.87;;;20.50;;
4939;SDS011;2485;49.326;7.214;2023-05-02T07:40:50;30.30;;;20.00;;
4939;SDS011;2485;49.326;7.214;2023-05-02T07:43:16;35.40;;;21.50;;
4939;SDS011;2485;49.326;7.214;2023-05-02T07:45:44;35.07;;;21.33;;
4939;SDS011;2485;49.326;7.214;2023-05-02T07:48:11;35.13;;;21.40;;
4939;SDS011;2485;49.326;7.214;2023-05-02T07:50:37;32.00;;;20.17;;
4939;SDS011;2485;49.326;7.214;2023-05-02T07:53:04;35.73;;;20.50;;
4939;SDS011;2485;49.326;7.214;2023-05-02T07:55:30;29.97;;;19.17;;
4939;SDS011;2485;49.326;7.214;2023-05-02T07:57:57;30.93;;;19.20;;
4939;SDS011;2485;49.326;7.214;2023-05-02T08:00:24;31.10;;;19.60;;
4939;SDS011;2485;49.326;7.214;2023-05-02T08:02:52;32.57;;;19.90;;
4939;SDS011;2485;49.326;7.214;2023-05-02T08:05:18;31.00;;;18.10;;
4939;SDS011;2485;49.326;7.214;2023-05-02T08:07:45;29.73;;;18.60;;
4939;SDS011;2485;49.326;7.214;2023-05-02T08:10:11;31.53;;;17.20;;
4939;SDS011;2485;49.326;7.214;2023-05-02T08:12:38;26.70;;;16.30;;
4939;SDS011;2485;49.326;7.214;2023-05-02T08:15:05;28.63;;;15.97;;
4939;SDS011;2485;49.326;7.214;2023-05-02T08:17:32;25.00;;;14.67;;
4939;SDS011;2485;49.326;7.214;2023-05-02T08:19:59;30.53;;;17.17;;
4939;SDS011;2485;49.326;7.214;2023-05-02T08:22:26;30.90;;;18.33;;
4939;SDS011;2485;49.326;7.214;2023-05-02T08:24:52;28.13;;;16.70;;
4939;SDS011;2485;49.326;7.214;2023-05-02T08:27:19;24.80;;;15.90;;
4939;SDS011;2485;49.326;7.214;2023-05-02T08:29:45;27.93;;;16.40;;
4939;SDS011;2485;49.326;7.214;2023-05-02T08:32:12;26.10;;;15.43;;
4939;SDS011;2485;49.326;7.214;2023-05-02T08:34:38;26.03;;;15.17;;
4939;SDS011;2485;49.326;7.214;2023-05-02T08:37:08;21.00;;;12.93;;
4939;SDS011;2485;49.326;7.214;2023-05-02T08:39:36;24.00;;;15.17;;
4939;SDS011;2485;49.326;7.214;2023-05-02T08:42:04;25.07;;;14.73;;
4939;SDS011;2485;49.326;7.214;2023-05-02T08:44:31;23.50;;;14.90;;
4939;SDS011;2485;49.326;7.214;2023-05-02T08:46:57;25.90;;;15.00;;
4939;SDS011;2485;49.326;7.214;2023-05-02T08:49:25;23.80;;;13.93;;
4939;SDS011;2485;49.326;7.214;2023-05-02T08:51:52;21.37;;;13.07;;
4939;SDS011;2485;49.326;7.214;2023-05-02T08:54:21;24.23;;;14.60;;
4939;SDS011;2485;49.326;7.214;2023-05-02T08:56:49;21.13;;;14.33;;
4939;SDS011;2485;49.326;7.214;2023-05-02T08:59:17;24.83;;;14.90;;
4939;SDS011;2485;49.326;7.214;2023-05-02T09:01:43;23.57;;;14.67;;
4939;SDS011;2485;49.326;7.214;2023-05-02T09:04:11;26.10;;;15.00;;
4939;SDS011;2485;49.326;7.214;2023-05-02T09:06:38;18.40;;;11.40;;
4939;SDS011;2485;49.326;7.214;2023-05-02T09:09:05;24.47;;;14.93;;
4939;SDS011;2485;49.326;7.214;2023-05-02T09:11:33;24.10;;;14.00;;
4939;SDS011;2485;49.326;7.214;2023-05-02T09:14:00;22.13;;;13.83;;
4939;SDS011;2485;49.326;7.214;2023-05-02T09:16:28;21.00;;;13.30;;
4939;SDS011;2485;49.326;7.214;2023-05-02T09:18:55;18.07;;;12.40;;
4939;SDS011;2485;49.326;7.214;2023-05-02T09:21:22;22.77;;;12.43;;
4939;SDS011;2485;49.326;7.214;2023-05-02T09:23:49;18.83;;;12.17;;
4939;SDS011;2485;49.326;7.214;2023-05-02T09:26:17;20.43;;;12.27;;
4939;SDS011;2485;49.326;7.214;2023-05-02T09:28:45;22.93;;;13.90;;
4939;SDS011;2485;49.326;7.214;2023-05-02T09:31:13;22.80;;;13.40;;
4939;SDS011;2485;49.326;7.214;2023-05-02T09:33:40;20.77;;;12.10;;
4939;SDS011;2485;49.326;7.214;2023-05-02T09:36:07;19.80;;;11.50;;
4939;SDS011;2485;49.326;7.214;2023-05-02T09:38:34;20.83;;;12.00;;
4939;SDS011;2485;49.326;7.214;2023-05-02T09:41:00;18.53;;;12.00;;
4939;SDS011;2485;49.326;7.214;2023-05-02T09:43:27;25.63;;;13.10;;
4939;SDS011;2485;49.326;7.214;2023-05-02T09:45:59;19.13;;;11.67;;
4939;SDS011;2485;49.326;7.214;2023-05-02T09:48:26;20.27;;;12.80;;
4939;SDS011;2485;49.326;7.214;2023-05-02T09:50:53;20.43;;;12.50;;
4939;SDS011;2485;49.326;7.214;2023-05-02T09:53:20;15.53;;;9.60;;
4939;SDS011;2485;49.326;7.214;2023-05-02T09:55:46;21.03;;;12.03;;
4939;SDS011;2485;49.326;7.214;2023-05-02T09:58:19;18.17;;;11.10;;
4939;SDS011;2485;49.326;7.214;2023-05-02T10:00:47;18.80;;;11.07;;
4939;SDS011;2485;49.326;7.214;2023-05-02T10:03:16;17.27;;;11.37;;
4939;SDS011;2485;49.326;7.214;2023-05-02T10:05:43;20.17;;;11.33;;
4939;SDS011;2485;49.326;7.214;2023-05-02T10:08:10;22.77;;;9.90;;
4939;SDS011;2485;49.326;7.214;2023-05-02T10:10:37;18.43;;;10.10;;
4939;SDS011;2485;49.326;7.214;2023-05-02T10:13:05;17.37;;;10.60;;
4939;SDS011;2485;49.326;7.214;2023-05-02T10:15:31;13.77;;;8.77;;
4939;SDS011;2485;49.326;7.214;2023-05-02T10:17:58;21.17;;;10.13;;
4939;SDS011;2485;49.326;7.214;2023-05-02T10:20:28;22.90;;;11.30;;
4939;SDS011;2485;49.326;7.214;2023-05-02T10:22:55;14.97;;;9.27;;
4939;SDS011;2485;49.326;7.214;2023-05-02T10:25:24;16.87;;;9.97;;
4939;SDS011;2485;49.326;7.214;2023-05-02T10:27:50;16.60;;;10.10;;
4939;SDS011;2485;49.326;7.214;2023-05-02T10:30:17;15.83;;;9.90;;
4939;SDS011;2485;49.326;7.214;2023-05-02T10:32:44;15.80;;;9.37;;
4939;SDS011;2485;49.326;7.214;2023-05-02T10:35:11;17.10;;;10.30;;
4939;SDS011;2485;49.326;7.214;2023-05-02T10:37:39;15.43;;;9.43;;
4939;SDS011;2485;49.326;7.214;2023-05-02T10:40:08;16.70;;;9.50;;
4939;SDS011;2485;49.326;7.214;2023-05-02T10:42:35;17.43;;;10.07;;
4939;SDS011;2485;49.326;7.214;2023-05-02T10:45:03;16.63;;;9.60;;
4939;SDS011;2485;49.326;7.214;2023-05-02T10:47:29;17.03;;;10.73;;
4939;SDS011;2485;49.326;7.214;2023-05-02T10:49:58;14.70;;;9.73;;
4939;SDS011;2485;49.326;7.214;2023-05-02T10:52:25;16.33;;;9.73;;
4939;SDS011;2485;49.326;7.214;2023-05-02T10:57:35;16.23;;;9.87;;
4939;SDS011;2485;49.326;7.214;2023-05-02T11:00:22;15.60;;;9.60;;
4939;SDS011;2485;49.326;7.214;2023-05-02T11:02:49;15.80;;;10.00;;
4939;SDS011;2485;49.326;7.214;2023-05-02T11:05:16;12.90;;;7.90;;
4939;SDS011;2485;49.326;7.214;2023-05-02T11:07:43;11.60;;;7.40;;
4939;SDS011;2485;49.326;7.214;2023-05-02T11:10:25;13.63;;;8.07;;
4939;SDS011;2485;49.326;7.214;2023-05-02T11:12:56;18.43;;;8.03;;
4939;SDS011;2485;49.326;7.214;2023-05-02T11:15:53;13.30;;;7.83;;
4939;SDS011;2485;49.326;7.214;2023-05-02T11:18:19;11.63;;;6.87;;
4939;SDS011;2485;49.326;7.214;2023-05-02T11:20:46;10.40;;;7.17;;
4939;SDS011;2485;49.326;7.214;2023-05-02T11:23:19;10.77;;;6.80;;
4939;SDS011;2485;49.326;7.214;2023-05-02T11:25:53;9.33;;;5.53;;
4939;SDS011;2485;49.326;7.214;2023-05-02T11:28:40;8.37;;;5.23;;
4939;SDS011;2485;49.326;7.214;2023-05-02T11:31:07;9.70;;;6.40;;
4939;SDS011;2485;49.326;7.214;2023-05-02T11:33:34;7.30;;;5.30;;
4939;SDS011;2485;49.326;7.214;2023-05-02T11:36:01;6.70;;;4.93;;
4939;SDS011;2485;49.326;7.214;2023-05-02T11:38:33;9.30;;;5.97;;
4939;SDS011;2485;49.326;7.214;2023-05-02T11:41:00;6.23;;;4.37;;
4939;SDS011;2485;49.326;7.214;2023-05-02T11:43:28;7.40;;;5.63;;
4939;SDS011;2485;49.326;7.214;2023-05-02T11:45:56;8.30;;;5.53;;
4939;SDS011;2485;49.326;7.214;2023-05-02T11:48:23;7.70;;;5.37;;
4939;SDS011;2485;49.326;7.214;2023-05-02T11:50:52;5.80;;;4.40;;
4939;SDS011;2485;49.326;7.214;2023-05-02T11:53:19;5.43;;;4.43;;
4939;SDS011;2485;49.326;7.214;2023-05-02T11:55:47;5.70;;;3.70;;
4939;SDS011;2485;49.326;7.214;2023-05-02T11:58:15;5.07;;;3.70;;
4939;SDS011;2485;49.326;7.214;2023-05-02T12:00:41;4.67;;;3.57;;
4939;SDS011;2485;49.326;7.214;2023-05-02T12:03:22;5.17;;;3.90;;
4939;SDS011;2485;49.326;7.214;2023-05-02T12:05:49;6.10;;;3.57;;
4939;SDS011;2485;49.326;7.214;2023-05-02T12:08:19;6.03;;;3.47;;
4939;SDS011;2485;49.326;7.214;2023-05-02T12:10:46;4.33;;;3.60;;
4939;SDS011;2485;49.326;7.214;2023-05-02T12:13:14;6.53;;;3.60;;
4939;SDS011;2485;49.326;7.214;2023-05-02T12:15:40;4.17;;;3.20;;
4939;SDS011;2485;49.326;7.214;2023-05-02T12:18:06;6.30;;;3.53;;
4939;SDS011;2485;49.326;7.214;2023-05-02T12:20:34;5.40;;;4.10;;
4939;SDS011;2485;49.326;7.214;2023-05-02T12:23:02;4.40;;;3.50;;
4939;SDS011;2485;49.326;7.214;2023-05-02T12:25:30;5.37;;;3.10;;
4939;SDS011;2485;49.326;7.214;2023-05-02T12:27:57;5.20;;;3.30;;
4939;SDS011;2485;49.326;7.214;2023-05-02T12:30:24;4.80;;;3.43;;
4939;SDS011;2485;49.326;7.214;2023-05-02T12:32:54;4.83;;;3.30;;
4939;SDS011;2485;49.326;7.214;2023-05-02T12:35:21;5.77;;;3.70;;
4939;SDS011;2485;49.326;7.214;2023-05-02T12:37:49;5.00;;;3.40;;
4939;SDS011;2485;49.326;7.214;2023-05-02T12:40:15;28.67;;;4.40;;
4939;SDS011;2485;49.326;7.214;2023-05-02T12:42:42;6.10;;;3.93;;
4939;SDS011;2485;49.326;7.214;2023-05-02T12:45:15;4.97;;;3.23;;
4939;SDS011;2485;49.326;7.214;2023-05-02T12:47:43;5.00;;;3.57;;
4939;SDS011;2485;49.326;7.214;2023-05-02T12:50:10;6.47;;;3.60;;
4939;SDS011;2485;49.326;7.214;2023-05-02T12:52:46;5.73;;;3.50;;
4939;SDS011;2485;49.326;7.214;2023-05-02T12:55:17;4.40;;;2.90;;
4939;SDS011;2485;49.326;7.214;2023-05-02T12:57:43;6.30;;;2.87;;
4939;SDS011;2485;49.326;7.214;2023-05-02T13:00:10;6.23;;;3.50;;
4939;SDS011;2485;49.326;7.214;2023-05-02T13:02:36;7.03;;;4.03;;
4939;SDS011;2485;49.326;7.214;2023-05-02T13:05:12;9.53;;;4.07;;
4939;SDS011;2485;49.326;7.214;2023-05-02T13:07:38;5.03;;;3.10;;
4939;SDS011;2485;49.326;7.214;2023-05-02T13:10:05;5.90;;;3.87;;
4939;SDS011;2485;49.326;7.214;2023-05-02T13:12:33;5.10;;;3.43;;
4939;SDS011;2485;49.326;7.214;2023-05-02T13:15:01;5.80;;;3.40;;
4939;SDS011;2485;49.326;7.214;2023-05-02T13:17:28;5.50;;;3.30;;
4939;SDS011;2485;49.326;7.214;2023-05-02T13:19:54;5.37;;;3.43;;
4939;SDS011;2485;49.326;7.214;2023-05-02T13:22:21;5.20;;;3.37;;
4939;SDS011;2485;49.326;7.214;2023-05-02T13:24:47;6.47;;;3.40;;
4939;SDS011;2485;49.326;7.214;2023-05-02T13:27:14;6.73;;;3.00;;
4939;SDS011;2485;49.326;7.214;2023-05-02T13:29:43;3.87;;;2.60;;
4939;SDS011;2485;49.326;7.214;2023-05-02T13:32:10;6.53;;;3.00;;
4939;SDS011;2485;49.326;7.214;2023-05-02T13:34:36;3.10;;;2.50;;
4939;SDS011;2485;49.326;7.214;2023-05-02T13:37:03;2.73;;;2.40;;
4939;SDS011;2485;49.326;7.214;2023-05-02T13:39:29;3.90;;;2.00;;
4939;SDS011;2485;49.326;7.214;2023-05-02T13:41:55;2.13;;;1.80;;
4939;SDS011;2485;49.326;7.214;2023-05-02T13:44:22;4.93;;;2.10;;
4939;SDS011;2485;49.326;7.214;2023-05-02T13:46:49;2.57;;;2.20;;
4939;SDS011;2485;49.326;7.214;2023-05-02T13:49:16;2.80;;;2.10;;
4939;SDS011;2485;49.326;7.214;2023-05-02T13:51:42;3.63;;;3.07;;
4939;SDS011;2485;49.326;7.214;2023-05-02T13:54:09;3.30;;;2.80;;
4939;SDS011;2485;49.326;7.214;2023-05-02T13:56:35;3.83;;;2.30;;
4939;SDS011;2485;49.326;7.214;2023-05-02T13:59:01;4.47;;;3.43;;
4939;SDS011;2485;49.326;7.214;2023-05-02T14:01:28;5.43;;;2.80;;
4939;SDS011;2485;49.326;7.214;2023-05-02T14:03:56;6.93;;;2.60;;
4939;SDS011;2485;49.326;7.214;2023-05-02T14:06:22;3.10;;;2.43;;
4939;SDS011;2485;49.326;7.214;2023-05-02T14:08:48;3.40;;;2.27;;
4939;SDS011;2485;49.326;7.214;2023-05-02T14:11:16;4.10;;;2.33;;
4939;SDS011;2485;49.326;7.214;2023-05-02T14:13:42;3.03;;;2.50;;
4939;SDS011;2485;49.326;7.214;2023-05-02T14:16:09;3.00;;;2.47;;
4939;SDS011;2485;49.326;7.214;2023-05-02T14:18:35;2.87;;;2.30;;
4939;SDS011;2485;49.326;7.214;2023-05-02T14:21:03;2.80;;;2.10;;
4939;SDS011;2485;49.326;7.214;2023-05-02T14:23:29;3.40;;;2.70;;
4939;SDS011;2485;49.326;7.214;2023-05-02T14:25:56;3.90;;;2.60;;
4939;SDS011;2485;49.326;7.214;2023-05-02T14:28:22;3.97;;;2.60;;
4939;SDS011;2485;49.326;7.214;2023-05-02T14:30:49;3.47;;;2.30;;
4939;SDS011;2485;49.326;7.214;2023-05-02T14:33:15;2.80;;;2.40;;
4939;SDS011;2485;49.326;7.214;2023-05-02T14:35:42;2.90;;;2.33;;
4939;SDS011;2485;49.326;7.214;2023-05-02T14:38:09;4.53;;;2.63;;
4939;SDS011;2485;49.326;7.214;2023-05-02T14:40:36;3.17;;;2.60;;
4939;SDS011;2485;49.326;7.214;2023-05-02T14:43:03;5.07;;;2.77;;
4939;SDS011;2485;49.326;7.214;2023-05-02T14:45:30;3.90;;;2.50;;
4939;SDS011;2485;49.326;7.214;2023-05-02T14:47:56;3.30;;;2.43;;
4939;SDS011;2485;49.326;7.214;2023-05-02T14:50:22;4.30;;;2.50;;
4939;SDS011;2485;49.326;7.214;2023-05-02T14:52:50;3.93;;;2.60;;
4939;SDS011;2485;49.326;7.214;2023-05-02T14:55:17;3.80;;;2.90;;
4939;SDS011;2485;49.326;7.214;2023-05-02T14:57:44;4.87;;;2.73;;
4939;SDS011;2485;49.326;7.214;2023-05-02T15:00:11;3.10;;;2.57;;
4939;SDS011;2485;49.326;7.214;2023-05-02T15:02:38;3.00;;;2.23;;